sensor_id;sensor_type;location;lat;lon;timestamp;temperature;humidity
55203;DHT22;41077;52.956;6.796;2022-07-29T00:02:22;15.20;99.90
55203;DHT22;41077;52.956;6.796;2022-07-29T00:04:47;15.10;99.90
55203;DHT22;41077;52.956;6.796;2022-07-29T00:07:13;15.10;99.90
55203;DHT22;41077;52.956;6.796;2022-07-29T00:09:39;15.10;99.90
55203;DHT22;41077;52.956;6.796;2022-07-29T00:12:04;15.10;99.90
55203;DHT22;41077;52.956;6.796;2022-07-29T00:14:30;15.10;99.90
55203;DHT22;41077;52.956;6.796;2022-07-29T00:16:56;15.10;99.90
55203;DHT22;41077;52.956;6.796;2022-07-29T00:19:22;15.10;99.90
55203;DHT22;41077;52.956;6.796;2022-07-29T00:21:47;15.10;99.90
55203;DHT22;41077;52.956;6.796;2022-07-29T00:24:13;15.10;99.90
55203;DHT22;41077;52.956;6.796;2022-07-29T00:26:38;15.10;99.90
55203;DHT22;41077;52.956;6.796;2022-07-29T00:29:04;15.10;99.90
55203;DHT22;41077;52.956;6.796;2022-07-29T00:31:30;15.10;99.90
55203;DHT22;41077;52.956;6.796;2022-07-29T00:33:56;15.00;99.90
55203;DHT22;41077;52.956;6.796;2022-07-29T00:36:22;15.10;99.90
55203;DHT22;41077;52.956;6.796;2022-07-29T00:38:49;15.00;99.90
55203;DHT22;41077;52.956;6.796;2022-07-29T00:41:16;15.00;99.90
55203;DHT22;41077;52.956;6.796;2022-07-29T00:43:42;15.00;99.90
55203;DHT22;41077;52.956;6.796;2022-07-29T00:46:08;15.00;99.90
55203;DHT22;41077;52.956;6.796;2022-07-29T00:48:34;15.00;99.90
55203;DHT22;41077;52.956;6.796;2022-07-29T00:51:01;15.00;99.90
55203;DHT22;41077;52.956;6.796;2022-07-29T00:53:27;15.00;99.90
55203;DHT22;41077;52.956;6.796;2022-07-29T00:55:56;15.00;99.90
55203;DHT22;41077;52.956;6.796;2022-07-29T00:58:22;15.00;99.90
55203;DHT22;41077;52.956;6.796;2022-07-29T01:00:49;15.00;99.90
55203;DHT22;41077;52.956;6.796;2022-07-29T01:03:14;15.00;99.90
55203;DHT22;41077;52.956;6.796;2022-07-29T01:05:41;15.00;99.90
55203;DHT22;41077;52.956;6.796;2022-07-29T01:08:08;15.00;99.90
55203;DHT22;41077;52.956;6.796;2022-07-29T01:10:38;15.00;99.90
55203;DHT22;41077;52.956;6.796;2022-07-29T01:13:05;15.00;99.90
55203;DHT22;41077;52.956;6.796;2022-07-29T01:15:33;14.90;99.90
55203;DHT22;41077;52.956;6.796;2022-07-29T01:18:23;14.90;99.90
55203;DHT22;41077;52.956;6.796;2022-07-29T01:21:01;14.90;99.90
55203;DHT22;41077;52.956;6.796;2022-07-29T01:23:46;14.90;99.90
55203;DHT22;41077;52.956;6.796;2022-07-29T01:26:22;14.90;99.90
55203;DHT22;41077;52.956;6.796;2022-07-29T01:31:43;14.90;99.90
55203;DHT22;41077;52.956;6.796;2022-07-29T01:34:15;14.90;99.90
55203;DHT22;41077;52.956;6.796;2022-07-29T01:36:44;14.90;99.90
55203;DHT22;41077;52.956;6.796;2022-07-29T01:39:31;14.90;99.90
55203;DHT22;41077;52.956;6.796;2022-07-29T01:44:34;14.90;99.90
55203;DHT22;41077;52.956;6.796;2022-07-29T01:47:05;14.90;99.90
55203;DHT22;41077;52.956;6.796;2022-07-29T01:49:36;14.90;99.90
55203;DHT22;41077;52.956;6.796;2022-07-29T01:52:13;14.90;99.90
55203;DHT22;41077;52.956;6.796;2022-07-29T01:54:52;14.90;99.90
55203;DHT22;41077;52.956;6.796;2022-07-29T01:57:21;14.90;99.90
55203;DHT22;41077;52.956;6.796;2022-07-29T01:59:51;14.90;99.90
55203;DHT22;41077;52.956;6.796;2022-07-29T02:02:18;14.80;99.90
55203;DHT22;41077;52.956;6.796;2022-07-29T02:04:46;14.80;99.90
55203;DHT22;41077;52.956;6.796;2022-07-29T02:07:17;14.80;99.90
55203;DHT22;41077;52.956;6.796;2022-07-29T02:09:44;14.80;99.90
55203;DHT22;41077;52.956;6.796;2022-07-29T02:12:11;14.80;99.90
55203;DHT22;41077;52.956;6.796;2022-07-29T02:14:41;14.80;99.90
55203;DHT22;41077;52.956;6.796;2022-07-29T02:17:08;14.80;99.90
55203;DHT22;41077;52.956;6.796;2022-07-29T02:19:34;14.80;99.90
55203;DHT22;41077;52.956;6.796;2022-07-29T02:22:02;14.80;99.90
55203;DHT22;41077;52.956;6.796;2022-07-29T02:24:28;14.70;99.90
55203;DHT22;41077;52.956;6.796;2022-07-29T02:26:56;14.70;99.90
55203;DHT22;41077;52.956;6.796;2022-07-29T02:29:26;14.70;99.90
55203;DHT22;41077;52.956;6.796;2022-07-29T02:31:53;14.70;99.90
55203;DHT22;41077;52.956;6.796;2022-07-29T02:34:21;14.70;99.90
55203;DHT22;41077;52.956;6.796;2022-07-29T02:36:48;14.70;99.90
55203;DHT22;41077;52.956;6.796;2022-07-29T02:39:15;14.70;99.90
55203;DHT22;41077;52.956;6.796;2022-07-29T02:41:47;14.70;99.90
55203;DHT22;41077;52.956;6.796;2022-07-29T02:44:22;14.70;99.90
55203;DHT22;41077;52.956;6.796;2022-07-29T02:49:40;14.70;99.90
55203;DHT22;41077;52.956;6.796;2022-07-29T02:52:18;14.60;99.90
55203;DHT22;41077;52.956;6.796;2022-07-29T02:55:02;14.70;99.90
55203;DHT22;41077;52.956;6.796;2022-07-29T02:58:02;14.60;99.90
55203;DHT22;41077;52.956;6.796;2022-07-29T03:00:30;14.60;99.90
55203;DHT22;41077;52.956;6.796;2022-07-29T03:02:59;14.60;99.90
55203;DHT22;41077;52.956;6.796;2022-07-29T03:05:26;14.70;99.90
55203;DHT22;41077;52.956;6.796;2022-07-29T03:07:58;14.60;99.90
55203;DHT22;41077;52.956;6.796;2022-07-29T03:10:26;14.70;99.90
55203;DHT22;41077;52.956;6.796;2022-07-29T03:12:54;14.70;99.90
55203;DHT22;41077;52.956;6.796;2022-07-29T03:15:21;14.70;99.90
55203;DHT22;41077;52.956;6.796;2022-07-29T03:17:47;14.60;99.90
55203;DHT22;41077;52.956;6.796;2022-07-29T03:20:14;14.60;99.90
55203;DHT22;41077;52.956;6.796;2022-07-29T03:22:41;14.60;99.90
55203;DHT22;41077;52.956;6.796;2022-07-29T03:25:16;14.60;99.90
55203;DHT22;41077;52.956;6.796;2022-07-29T03:27:43;14.60;99.90
55203;DHT22;41077;52.956;6.796;2022-07-29T03:30:10;14.60;99.90
55203;DHT22;41077;52.956;6.796;2022-07-29T03:32:36;14.60;99.90
55203;DHT22;41077;52.956;6.796;2022-07-29T03:35:03;14.60;99.90
55203;DHT22;41077;52.956;6.796;2022-07-29T03:37:29;14.60;99.90
55203;DHT22;41077;52.956;6.796;2022-07-29T03:39:57;14.60;99.90
55203;DHT22;41077;52.956;6.796;2022-07-29T03:42:24;14.60;99.90
55203;DHT22;41077;52.956;6.796;2022-07-29T03:44:51;14.60;99.90
55203;DHT22;41077;52.956;6.796;2022-07-29T03:47:21;14.60;99.90
55203;DHT22;41077;52.956;6.796;2022-07-29T03:49:49;14.60;99.90
55203;DHT22;41077;52.956;6.796;2022-07-29T03:52:16;14.60;99.90
55203;DHT22;41077;52.956;6.796;2022-07-29T03:54:42;14.60;99.90
55203;DHT22;41077;52.956;6.796;2022-07-29T03:57:09;14.60;99.90
55203;DHT22;41077;52.956;6.796;2022-07-29T03:59:36;14.60;99.90
55203;DHT22;41077;52.956;6.796;2022-07-29T04:02:04;14.60;99.90
55203;DHT22;41077;52.956;6.796;2022-07-29T04:04:34;14.60;99.90
55203;DHT22;41077;52.956;6.796;2022-07-29T04:07:01;14.60;99.90
55203;DHT22;41077;52.956;6.796;2022-07-29T04:09:26;14.60;99.90
55203;DHT22;41077;52.956;6.796;2022-07-29T04:11:52;14.60;99.90
55203;DHT22;41077;52.956;6.796;2022-07-29T04:14:18;14.60;99.90
55203;DHT22;41077;52.956;6.796;2022-07-29T04:16:44;14.50;99.90
55203;DHT22;41077;52.956;6.796;2022-07-29T04:19:10;14.60;99.90
55203;DHT22;41077;52.956;6.796;2022-07-29T04:21:41;14.60;99.90
55203;DHT22;41077;52.956;6.796;2022-07-29T04:24:08;14.50;99.90
55203;DHT22;41077;52.956;6.796;2022-07-29T04:26:34;14.60;99.90
55203;DHT22;41077;52.956;6.796;2022-07-29T04:29:00;14.60;99.90
55203;DHT22;41077;52.956;6.796;2022-07-29T04:31:26;14.60;99.90
55203;DHT22;41077;52.956;6.796;2022-07-29T04:33:51;14.50;99.90
55203;DHT22;41077;52.956;6.796;2022-07-29T04:36:17;14.50;99.90
55203;DHT22;41077;52.956;6.796;2022-07-29T04:38:43;14.50;99.90
55203;DHT22;41077;52.956;6.796;2022-07-29T04:41:08;14.50;99.90
55203;DHT22;41077;52.956;6.796;2022-07-29T04:43:35;14.50;99.90
55203;DHT22;41077;52.956;6.796;2022-07-29T04:46:01;14.50;99.90
55203;DHT22;41077;52.956;6.796;2022-07-29T04:48:27;14.50;99.90
55203;DHT22;41077;52.956;6.796;2022-07-29T04:50:53;14.50;99.90
55203;DHT22;41077;52.956;6.796;2022-07-29T04:53:19;14.50;99.90
55203;DHT22;41077;52.956;6.796;2022-07-29T04:55:44;14.50;99.90
55203;DHT22;41077;52.956;6.796;2022-07-29T04:58:11;14.60;99.90
55203;DHT22;41077;52.956;6.796;2022-07-29T05:00:36;14.50;99.90
55203;DHT22;41077;52.956;6.796;2022-07-29T05:03:02;14.60;99.90
55203;DHT22;41077;52.956;6.796;2022-07-29T05:05:28;14.60;99.90
55203;DHT22;41077;52.956;6.796;2022-07-29T05:07:54;14.60;99.90
55203;DHT22;41077;52.956;6.796;2022-07-29T05:10:20;14.60;99.90
55203;DHT22;41077;52.956;6.796;2022-07-29T05:12:46;14.60;99.90
55203;DHT22;41077;52.956;6.796;2022-07-29T05:15:12;14.60;99.90
55203;DHT22;41077;52.956;6.796;2022-07-29T05:17:38;14.70;99.90
55203;DHT22;41077;52.956;6.796;2022-07-29T05:20:04;14.70;99.90
55203;DHT22;41077;52.956;6.796;2022-07-29T05:22:30;14.70;99.90
55203;DHT22;41077;52.956;6.796;2022-07-29T05:24:56;14.80;99.90
55203;DHT22;41077;52.956;6.796;2022-07-29T05:27:22;14.80;99.90
55203;DHT22;41077;52.956;6.796;2022-07-29T05:29:47;14.80;99.90
55203;DHT22;41077;52.956;6.796;2022-07-29T05:32:13;14.80;99.90
55203;DHT22;41077;52.956;6.796;2022-07-29T05:34:39;14.80;99.90
55203;DHT22;41077;52.956;6.796;2022-07-29T05:37:05;14.90;99.90
55203;DHT22;41077;52.956;6.796;2022-07-29T05:39:31;14.90;99.90
55203;DHT22;41077;52.956;6.796;2022-07-29T05:41:56;14.90;99.90
55203;DHT22;41077;52.956;6.796;2022-07-29T05:44:22;14.90;99.90
55203;DHT22;41077;52.956;6.796;2022-07-29T05:46:48;14.90;99.90
55203;DHT22;41077;52.956;6.796;2022-07-29T05:49:13;14.90;99.90
55203;DHT22;41077;52.956;6.796;2022-07-29T05:51:39;15.00;99.90
55203;DHT22;41077;52.956;6.796;2022-07-29T05:54:05;15.00;99.90
55203;DHT22;41077;52.956;6.796;2022-07-29T05:56:31;15.00;99.90
55203;DHT22;41077;52.956;6.796;2022-07-29T05:58:57;15.00;99.90
55203;DHT22;41077;52.956;6.796;2022-07-29T06:01:22;15.00;99.90
55203;DHT22;41077;52.956;6.796;2022-07-29T06:03:48;15.10;99.90
55203;DHT22;41077;52.956;6.796;2022-07-29T06:06:14;15.10;99.90
55203;DHT22;41077;52.956;6.796;2022-07-29T06:08:39;15.20;99.90
55203;DHT22;41077;52.956;6.796;2022-07-29T06:11:05;15.20;99.90
55203;DHT22;41077;52.956;6.796;2022-07-29T06:13:31;15.20;99.90
55203;DHT22;41077;52.956;6.796;2022-07-29T06:15:57;15.20;99.90
55203;DHT22;41077;52.956;6.796;2022-07-29T06:18:23;15.30;99.90
55203;DHT22;41077;52.956;6.796;2022-07-29T06:20:51;15.30;99.90
55203;DHT22;41077;52.956;6.796;2022-07-29T06:23:18;15.40;99.90
55203;DHT22;41077;52.956;6.796;2022-07-29T06:25:44;15.40;99.90
55203;DHT22;41077;52.956;6.796;2022-07-29T06:28:10;15.50;99.90
55203;DHT22;41077;52.956;6.796;2022-07-29T06:30:36;15.50;99.90
55203;DHT22;41077;52.956;6.796;2022-07-29T06:33:02;15.50;99.90
55203;DHT22;41077;52.956;6.796;2022-07-29T06:35:28;15.60;99.90
55203;DHT22;41077;52.956;6.796;2022-07-29T06:37:54;15.70;99.90
55203;DHT22;41077;52.956;6.796;2022-07-29T06:40:20;15.70;99.90
55203;DHT22;41077;52.956;6.796;2022-07-29T06:43:04;15.70;99.90
55203;DHT22;41077;52.956;6.796;2022-07-29T06:45:33;15.80;99.90
55203;DHT22;41077;52.956;6.796;2022-07-29T06:47:58;15.80;99.90
55203;DHT22;41077;52.956;6.796;2022-07-29T06:50:25;15.70;99.90
55203;DHT22;41077;52.956;6.796;2022-07-29T06:52:50;15.80;99.90
55203;DHT22;41077;52.956;6.796;2022-07-29T06:55:16;15.80;99.90
55203;DHT22;41077;52.956;6.796;2022-07-29T06:57:45;15.90;99.90
55203;DHT22;41077;52.956;6.796;2022-07-29T07:00:11;15.90;99.90
55203;DHT22;41077;52.956;6.796;2022-07-29T07:02:37;15.90;99.90
55203;DHT22;41077;52.956;6.796;2022-07-29T07:05:03;15.90;99.90
55203;DHT22;41077;52.956;6.796;2022-07-29T07:07:28;15.90;99.90
55203;DHT22;41077;52.956;6.796;2022-07-29T07:09:54;15.90;99.90
55203;DHT22;41077;52.956;6.796;2022-07-29T07:12:20;15.90;99.90
55203;DHT22;41077;52.956;6.796;2022-07-29T07:14:45;16.00;99.90
55203;DHT22;41077;52.956;6.796;2022-07-29T07:17:11;16.00;99.90
55203;DHT22;41077;52.956;6.796;2022-07-29T07:19:37;16.10;99.90
55203;DHT22;41077;52.956;6.796;2022-07-29T07:22:02;16.10;99.90
55203;DHT22;41077;52.956;6.796;2022-07-29T07:24:28;16.20;99.90
55203;DHT22;41077;52.956;6.796;2022-07-29T07:26:54;16.20;99.90
55203;DHT22;41077;52.956;6.796;2022-07-29T07:29:19;16.30;99.90
55203;DHT22;41077;52.956;6.796;2022-07-29T07:31:45;16.30;99.90
55203;DHT22;41077;52.956;6.796;2022-07-29T07:34:11;16.30;99.90
55203;DHT22;41077;52.956;6.796;2022-07-29T07:36:36;16.40;99.90
55203;DHT22;41077;52.956;6.796;2022-07-29T07:39:02;16.40;99.90
55203;DHT22;41077;52.956;6.796;2022-07-29T07:41:28;16.50;99.90
55203;DHT22;41077;52.956;6.796;2022-07-29T07:43:54;16.50;99.90
55203;DHT22;41077;52.956;6.796;2022-07-29T07:46:20;16.50;99.90
55203;DHT22;41077;52.956;6.796;2022-07-29T07:48:45;16.60;99.90
55203;DHT22;41077;52.956;6.796;2022-07-29T07:51:11;16.60;99.90
55203;DHT22;41077;52.956;6.796;2022-07-29T07:53:37;16.70;99.90
55203;DHT22;41077;52.956;6.796;2022-07-29T07:56:03;16.80;99.90
55203;DHT22;41077;52.956;6.796;2022-07-29T07:58:30;16.80;99.90
55203;DHT22;41077;52.956;6.796;2022-07-29T08:00:56;16.90;99.90
55203;DHT22;41077;52.956;6.796;2022-07-29T08:03:22;17.00;99.90
55203;DHT22;41077;52.956;6.796;2022-07-29T08:05:47;17.10;99.90
55203;DHT22;41077;52.956;6.796;2022-07-29T08:08:13;17.10;99.90
55203;DHT22;41077;52.956;6.796;2022-07-29T08:10:39;17.20;99.90
55203;DHT22;41077;52.956;6.796;2022-07-29T08:13:26;17.20;99.90
55203;DHT22;41077;52.956;6.796;2022-07-29T08:15:53;17.30;99.90
55203;DHT22;41077;52.956;6.796;2022-07-29T08:18:28;17.30;99.90
55203;DHT22;41077;52.956;6.796;2022-07-29T08:20:54;17.30;99.90
55203;DHT22;41077;52.956;6.796;2022-07-29T08:23:20;17.30;99.90
55203;DHT22;41077;52.956;6.796;2022-07-29T08:25:46;17.40;99.90
55203;DHT22;41077;52.956;6.796;2022-07-29T08:28:12;17.40;99.90
55203;DHT22;41077;52.956;6.796;2022-07-29T08:30:38;17.40;99.90
55203;DHT22;41077;52.956;6.796;2022-07-29T08:33:04;17.40;99.90
55203;DHT22;41077;52.956;6.796;2022-07-29T08:35:29;17.40;99.90
55203;DHT22;41077;52.956;6.796;2022-07-29T08:37:55;17.30;99.90
55203;DHT22;41077;52.956;6.796;2022-07-29T08:40:22;17.40;99.90
55203;DHT22;41077;52.956;6.796;2022-07-29T08:42:49;17.30;99.90
55203;DHT22;41077;52.956;6.796;2022-07-29T08:45:15;17.30;99.90
55203;DHT22;41077;52.956;6.796;2022-07-29T08:47:41;17.30;99.90
55203;DHT22;41077;52.956;6.796;2022-07-29T08:50:09;17.30;99.90
55203;DHT22;41077;52.956;6.796;2022-07-29T08:52:38;17.30;99.90
55203;DHT22;41077;52.956;6.796;2022-07-29T08:55:09;17.40;99.90
55203;DHT22;41077;52.956;6.796;2022-07-29T08:57:36;17.40;99.90
55203;DHT22;41077;52.956;6.796;2022-07-29T09:00:05;17.40;99.90
55203;DHT22;41077;52.956;6.796;2022-07-29T09:02:36;17.40;99.90
55203;DHT22;41077;52.956;6.796;2022-07-29T09:05:05;17.40;99.90
55203;DHT22;41077;52.956;6.796;2022-07-29T09:07:31;17.50;99.90
55203;DHT22;41077;52.956;6.796;2022-07-29T09:09:57;17.50;99.90
55203;DHT22;41077;52.956;6.796;2022-07-29T09:12:23;17.60;99.90
55203;DHT22;41077;52.956;6.796;2022-07-29T09:14:50;17.60;99.90
55203;DHT22;41077;52.956;6.796;2022-07-29T09:17:16;17.70;99.90
55203;DHT22;41077;52.956;6.796;2022-07-29T09:19:43;17.80;99.90
55203;DHT22;41077;52.956;6.796;2022-07-29T09:22:09;17.90;99.90
55203;DHT22;41077;52.956;6.796;2022-07-29T09:24:43;17.90;99.90
55203;DHT22;41077;52.956;6.796;2022-07-29T09:29:37;18.00;99.90
55203;DHT22;41077;52.956;6.796;2022-07-29T09:32:08;18.00;99.90
55203;DHT22;41077;52.956;6.796;2022-07-29T09:34:34;17.90;99.90
55203;DHT22;41077;52.956;6.796;2022-07-29T09:37:00;18.00;99.90
55203;DHT22;41077;52.956;6.796;2022-07-29T09:41:58;18.00;99.90
55203;DHT22;41077;52.956;6.796;2022-07-29T09:44:25;18.00;99.90
55203;DHT22;41077;52.956;6.796;2022-07-29T09:47:03;18.00;99.90
55203;DHT22;41077;52.956;6.796;2022-07-29T09:49:32;18.00;99.90
55203;DHT22;41077;52.956;6.796;2022-07-29T09:52:07;18.00;99.90
55203;DHT22;41077;52.956;6.796;2022-07-29T09:54:33;18.00;99.90
55203;DHT22;41077;52.956;6.796;2022-07-29T09:57:06;18.10;99.90
55203;DHT22;41077;52.956;6.796;2022-07-29T09:59:34;18.10;99.90
55203;DHT22;41077;52.956;6.796;2022-07-29T10:02:00;18.00;99.90
55203;DHT22;41077;52.956;6.796;2022-07-29T10:04:39;18.10;99.90
55203;DHT22;41077;52.956;6.796;2022-07-29T10:07:05;18.10;99.90
55203;DHT22;41077;52.956;6.796;2022-07-29T10:09:31;18.20;99.90
55203;DHT22;41077;52.956;6.796;2022-07-29T10:12:11;18.30;99.90
55203;DHT22;41077;52.956;6.796;2022-07-29T10:14:39;18.30;99.90
55203;DHT22;41077;52.956;6.796;2022-07-29T10:17:07;18.40;99.90
55203;DHT22;41077;52.956;6.796;2022-07-29T10:19:34;18.50;99.90
55203;DHT22;41077;52.956;6.796;2022-07-29T10:22:02;18.50;99.90
55203;DHT22;41077;52.956;6.796;2022-07-29T10:24:29;18.60;99.90
55203;DHT22;41077;52.956;6.796;2022-07-29T10:26:57;18.70;99.90
55203;DHT22;41077;52.956;6.796;2022-07-29T10:29:23;18.70;99.90
55203;DHT22;41077;52.956;6.796;2022-07-29T10:43:28;19.00;99.90
55203;DHT22;41077;52.956;6.796;2022-07-29T10:45:59;19.00;99.90
55203;DHT22;41077;52.956;6.796;2022-07-29T10:48:25;19.00;99.90
55203;DHT22;41077;52.956;6.796;2022-07-29T10:50:58;19.00;99.90
55203;DHT22;41077;52.956;6.796;2022-07-29T10:53:25;19.00;99.90
55203;DHT22;41077;52.956;6.796;2022-07-29T10:56:24;19.00;99.90
55203;DHT22;41077;52.956;6.796;2022-07-29T11:01:50;19.00;99.90
55203;DHT22;41077;52.956;6.796;2022-07-29T11:09:30;19.10;99.90
55203;DHT22;41077;52.956;6.796;2022-07-29T11:11:56;19.10;99.90
55203;DHT22;41077;52.956;6.796;2022-07-29T11:17:17;19.10;99.90
55203;DHT22;41077;52.956;6.796;2022-07-29T11:19:43;19.10;99.90
55203;DHT22;41077;52.956;6.796;2022-07-29T11:22:10;19.10;99.90
55203;DHT22;41077;52.956;6.796;2022-07-29T11:24:37;19.10;99.90
55203;DHT22;41077;52.956;6.796;2022-07-29T11:29:57;19.20;99.90
55203;DHT22;41077;52.956;6.796;2022-07-29T11:32:24;19.20;99.90
55203;DHT22;41077;52.956;6.796;2022-07-29T11:35:15;19.20;99.90
55203;DHT22;41077;52.956;6.796;2022-07-29T11:37:41;19.20;99.90
55203;DHT22;41077;52.956;6.796;2022-07-29T11:50:27;19.40;99.90
55203;DHT22;41077;52.956;6.796;2022-07-29T11:52:53;19.50;99.90
55203;DHT22;41077;52.956;6.796;2022-07-29T11:55:21;19.50;99.90
55203;DHT22;41077;52.956;6.796;2022-07-29T11:57:58;19.60;99.90
55203;DHT22;41077;52.956;6.796;2022-07-29T12:02:53;19.70;99.90
55203;DHT22;41077;52.956;6.796;2022-07-29T12:05:19;19.70;99.90
55203;DHT22;41077;52.956;6.796;2022-07-29T12:07:46;19.80;99.90
55203;DHT22;41077;52.956;6.796;2022-07-29T12:10:12;19.90;99.90
55203;DHT22;41077;52.956;6.796;2022-07-29T12:12:38;19.90;99.90
55203;DHT22;41077;52.956;6.796;2022-07-29T12:15:12;20.00;99.90
55203;DHT22;41077;52.956;6.796;2022-07-29T12:17:37;20.10;99.90
55203;DHT22;41077;52.956;6.796;2022-07-29T12:20:05;20.20;99.90
55203;DHT22;41077;52.956;6.796;2022-07-29T12:22:39;20.30;99.90
55203;DHT22;41077;52.956;6.796;2022-07-29T12:25:12;20.30;99.90
55203;DHT22;41077;52.956;6.796;2022-07-29T12:27:39;20.40;99.90
55203;DHT22;41077;52.956;6.796;2022-07-29T12:30:11;20.40;99.90
55203;DHT22;41077;52.956;6.796;2022-07-29T12:35:08;20.60;99.90
55203;DHT22;41077;52.956;6.796;2022-07-29T12:37:35;20.60;99.90
55203;DHT22;41077;52.956;6.796;2022-07-29T12:40:06;20.60;99.90
55203;DHT22;41077;52.956;6.796;2022-07-29T12:42:33;20.60;99.90
55203;DHT22;41077;52.956;6.796;2022-07-29T12:45:00;20.70;99.90
55203;DHT22;41077;52.956;6.796;2022-07-29T12:47:26;20.70;99.90
55203;DHT22;41077;52.956;6.796;2022-07-29T12:50:08;20.70;99.90
55203;DHT22;41077;52.956;6.796;2022-07-29T12:52:35;20.80;99.90
55203;DHT22;41077;52.956;6.796;2022-07-29T12:55:01;21.00;99.90
55203;DHT22;41077;52.956;6.796;2022-07-29T12:57:27;21.20;99.90
55203;DHT22;41077;52.956;6.796;2022-07-29T13:00:11;21.30;99.90
55203;DHT22;41077;52.956;6.796;2022-07-29T13:02:38;21.50;99.90
55203;DHT22;41077;52.956;6.796;2022-07-29T13:05:06;21.60;99.90
55203;DHT22;41077;52.956;6.796;2022-07-29T13:07:34;21.70;99.90
55203;DHT22;41077;52.956;6.796;2022-07-29T13:10:17;21.80;99.90
55203;DHT22;41077;52.956;6.796;2022-07-29T13:15:27;21.90;99.90
55203;DHT22;41077;52.956;6.796;2022-07-29T13:17:53;22.10;99.90
55203;DHT22;41077;52.956;6.796;2022-07-29T13:20:23;22.20;99.90
55203;DHT22;41077;52.956;6.796;2022-07-29T13:22:48;22.30;99.90
55203;DHT22;41077;52.956;6.796;2022-07-29T13:25:14;22.30;99.90
55203;DHT22;41077;52.956;6.796;2022-07-29T13:27:48;22.50;99.90
55203;DHT22;41077;52.956;6.796;2022-07-29T13:30:15;22.60;99.90
55203;DHT22;41077;52.956;6.796;2022-07-29T13:32:40;22.70;99.90
55203;DHT22;41077;52.956;6.796;2022-07-29T13:35:07;22.80;99.90
55203;DHT22;41077;52.956;6.796;2022-07-29T13:37:34;22.80;99.90
55203;DHT22;41077;52.956;6.796;2022-07-29T13:40:04;22.90;99.90
55203;DHT22;41077;52.956;6.796;2022-07-29T13:42:31;22.90;99.90
55203;DHT22;41077;52.956;6.796;2022-07-29T13:44:57;22.80;99.90
55203;DHT22;41077;52.956;6.796;2022-07-29T13:47:23;22.80;99.90
55203;DHT22;41077;52.956;6.796;2022-07-29T13:49:49;22.80;99.90
55203;DHT22;41077;52.956;6.796;2022-07-29T13:52:15;22.80;99.90
55203;DHT22;41077;52.956;6.796;2022-07-29T13:54:41;22.80;99.90
55203;DHT22;41077;52.956;6.796;2022-07-29T13:57:07;22.70;99.90
55203;DHT22;41077;52.956;6.796;2022-07-29T13:59:33;22.80;99.90
55203;DHT22;41077;52.956;6.796;2022-07-29T14:01:59;22.90;99.90
55203;DHT22;41077;52.956;6.796;2022-07-29T14:04:25;22.90;99.90
55203;DHT22;41077;52.956;6.796;2022-07-29T14:06:51;23.00;99.80
55203;DHT22;41077;52.956;6.796;2022-07-29T14:09:17;22.90;99.70
55203;DHT22;41077;52.956;6.796;2022-07-29T14:11:42;23.00;99.90
55203;DHT22;41077;52.956;6.796;2022-07-29T14:14:08;23.00;99.90
55203;DHT22;41077;52.956;6.796;2022-07-29T14:16:35;22.90;99.20
55203;DHT22;41077;52.956;6.796;2022-07-29T14:19:01;22.90;99.70
55203;DHT22;41077;52.956;6.796;2022-07-29T14:21:27;22.80;99.10
55203;DHT22;41077;52.956;6.796;2022-07-29T14:23:53;22.90;99.00
55203;DHT22;41077;52.956;6.796;2022-07-29T14:26:20;22.80;99.60
55203;DHT22;41077;52.956;6.796;2022-07-29T14:28:47;22.70;99.00
55203;DHT22;41077;52.956;6.796;2022-07-29T14:31:13;22.70;99.20
55203;DHT22;41077;52.956;6.796;2022-07-29T14:33:39;22.70;99.40
55203;DHT22;41077;52.956;6.796;2022-07-29T14:36:05;22.60;99.20
55203;DHT22;41077;52.956;6.796;2022-07-29T14:38:30;22.70;99.50
55203;DHT22;41077;52.956;6.796;2022-07-29T14:40:56;22.60;99.60
55203;DHT22;41077;52.956;6.796;2022-07-29T14:43:22;22.60;99.30
55203;DHT22;41077;52.956;6.796;2022-07-29T14:45:47;22.60;99.30
55203;DHT22;41077;52.956;6.796;2022-07-29T14:48:13;22.60;99.10
55203;DHT22;41077;52.956;6.796;2022-07-29T14:50:39;22.50;98.80
55203;DHT22;41077;52.956;6.796;2022-07-29T14:53:04;22.60;99.20
55203;DHT22;41077;52.956;6.796;2022-07-29T14:55:30;22.60;99.50
55203;DHT22;41077;52.956;6.796;2022-07-29T14:57:56;22.70;99.30
55203;DHT22;41077;52.956;6.796;2022-07-29T15:00:22;22.80;99.30
55203;DHT22;41077;52.956;6.796;2022-07-29T15:02:48;23.00;99.20
55203;DHT22;41077;52.956;6.796;2022-07-29T15:05:14;23.20;99.10
55203;DHT22;41077;52.956;6.796;2022-07-29T15:07:40;23.30;98.50
55203;DHT22;41077;52.956;6.796;2022-07-29T15:10:06;23.40;98.90
55203;DHT22;41077;52.956;6.796;2022-07-29T15:12:32;23.50;98.20
55203;DHT22;41077;52.956;6.796;2022-07-29T15:14:58;23.50;98.10
55203;DHT22;41077;52.956;6.796;2022-07-29T15:17:24;23.60;97.60
55203;DHT22;41077;52.956;6.796;2022-07-29T15:19:50;23.60;97.30
55203;DHT22;41077;52.956;6.796;2022-07-29T15:22:16;23.60;97.30
55203;DHT22;41077;52.956;6.796;2022-07-29T15:24:42;23.60;97.30
55203;DHT22;41077;52.956;6.796;2022-07-29T15:27:07;23.60;96.80
55203;DHT22;41077;52.956;6.796;2022-07-29T15:29:42;23.60;96.50
55203;DHT22;41077;52.956;6.796;2022-07-29T15:32:08;23.60;96.40
55203;DHT22;41077;52.956;6.796;2022-07-29T15:34:34;23.60;96.50
55203;DHT22;41077;52.956;6.796;2022-07-29T15:37:00;23.60;96.20
55203;DHT22;41077;52.956;6.796;2022-07-29T15:39:26;23.60;96.10
55203;DHT22;41077;52.956;6.796;2022-07-29T15:41:52;23.60;95.30
55203;DHT22;41077;52.956;6.796;2022-07-29T15:44:18;23.70;94.90
55203;DHT22;41077;52.956;6.796;2022-07-29T15:46:44;23.70;95.10
55203;DHT22;41077;52.956;6.796;2022-07-29T15:49:38;23.80;95.00
55203;DHT22;41077;52.956;6.796;2022-07-29T15:52:07;23.70;94.70
55203;DHT22;41077;52.956;6.796;2022-07-29T15:54:34;23.80;93.80
55203;DHT22;41077;52.956;6.796;2022-07-29T15:57:01;23.80;93.40
55203;DHT22;41077;52.956;6.796;2022-07-29T15:59:27;23.80;93.20
55203;DHT22;41077;52.956;6.796;2022-07-29T16:01:53;23.80;92.90
55203;DHT22;41077;52.956;6.796;2022-07-29T16:04:19;23.80;93.00
55203;DHT22;41077;52.956;6.796;2022-07-29T16:06:46;23.80;93.00
55203;DHT22;41077;52.956;6.796;2022-07-29T16:09:12;23.80;92.40
55203;DHT22;41077;52.956;6.796;2022-07-29T16:11:38;23.80;92.60
55203;DHT22;41077;52.956;6.796;2022-07-29T16:14:04;23.80;92.50
55203;DHT22;41077;52.956;6.796;2022-07-29T16:16:30;23.80;92.10
55203;DHT22;41077;52.956;6.796;2022-07-29T16:18:56;23.80;92.50
55203;DHT22;41077;52.956;6.796;2022-07-29T16:21:22;23.80;92.40
55203;DHT22;41077;52.956;6.796;2022-07-29T16:23:48;23.80;91.90
55203;DHT22;41077;52.956;6.796;2022-07-29T16:26:14;23.80;91.40
55203;DHT22;41077;52.956;6.796;2022-07-29T16:28:40;23.80;91.60
55203;DHT22;41077;52.956;6.796;2022-07-29T16:31:06;23.80;92.00